createdAt,value
2022-12-25T04:02:46.184Z,3.03
2022-12-25T04:05:32.263Z,3.28
2022-12-25T04:08:18.152Z,3.30
2022-12-25T04:11:04.124Z,3.50
2022-12-25T04:13:50.178Z,3.30
2022-12-25T04:16:36.248Z,3.40
2022-12-25T04:19:22.454Z,4.57
2022-12-25T04:22:08.414Z,7.95
2022-12-25T04:24:54.207Z,5.45
2022-12-25T04:27:40.097Z,3.53
2022-12-25T04:30:26.597Z,4.93
2022-12-25T04:33:16.609Z,4.35
2022-12-25T04:36:08.486Z,4.30
2022-12-25T04:38:36.831Z,6.22
2022-12-25T04:41:04.866Z,5.88
2022-12-25T04:43:32.373Z,4.70
2022-12-25T04:46:01.629Z,6.03
2022-12-25T04:48:30.716Z,8.43
2022-12-25T04:50:57.980Z,5.93
2022-12-25T04:53:25.307Z,3.85
2022-12-25T04:56:01.760Z,5.07
2022-12-25T04:58:29.316Z,8.15
2022-12-25T05:01:00.369Z,4.53
2022-12-25T05:03:28.278Z,9.85
2022-12-25T05:05:55.605Z,11.30
2022-12-25T05:08:23.529Z,7.47
2022-12-25T05:10:51.004Z,7.38
2022-12-25T05:13:18.265Z,11.10
2022-12-25T05:15:45.575Z,4.80
2022-12-25T05:18:12.881Z,3.92
2022-12-25T05:20:40.595Z,3.83
2022-12-25T05:23:11.130Z,4.45
2022-12-25T05:25:41.465Z,4.32
2022-12-25T05:28:09.520Z,5.65
2022-12-25T05:30:36.826Z,5.38
2022-12-25T05:33:04.276Z,4.13
2022-12-25T05:35:31.603Z,3.20
2022-12-25T05:37:58.948Z,4.53
2022-12-25T05:40:26.264Z,4.40
2022-12-25T05:42:53.497Z,4.18
2022-12-25T05:45:20.748Z,5.80
2022-12-25T05:47:47.975Z,4.38
2022-12-25T05:50:15.257Z,5.35
2022-12-25T05:52:42.753Z,4.55
2022-12-25T05:55:09.990Z,4.75
2022-12-25T05:57:37.356Z,3.40
2022-12-25T06:00:06.108Z,9.13
2022-12-25T06:02:35.658Z,2.90
2022-12-25T06:05:04.217Z,4.68
2022-12-25T06:07:31.488Z,5.40
2022-12-25T06:09:58.885Z,5.40
2022-12-25T06:12:26.151Z,4.90
2022-12-25T06:14:53.340Z,4.45
2022-12-25T06:17:20.604Z,7.32
2022-12-25T06:19:47.870Z,6.82
2022-12-25T06:22:15.171Z,4.60
2022-12-25T06:24:42.557Z,4.35
2022-12-25T06:27:09.752Z,5.73
2022-12-25T06:29:37.026Z,5.13
2022-12-25T06:32:04.532Z,3.17
2022-12-25T06:34:31.819Z,4.65
2022-12-25T06:36:59.024Z,4.32
2022-12-25T06:39:26.283Z,6.22
2022-12-25T06:41:53.581Z,3.30
2022-12-25T06:44:21.238Z,4.03
2022-12-25T06:46:48.561Z,9.27
2022-12-25T06:49:15.831Z,4.70
2022-12-25T06:51:43.041Z,5.38
2022-12-25T06:54:10.361Z,5.07
2022-12-25T06:56:37.831Z,4.30
2022-12-25T06:59:07.729Z,3.50
2022-12-25T07:01:54.658Z,5.30
2022-12-25T07:04:27.618Z,6.45
2022-12-25T07:06:54.867Z,10.20
2022-12-25T07:09:22.095Z,9.77
2022-12-25T07:11:49.365Z,73.27
2022-12-25T07:14:24.228Z,30.50
2022-12-25T07:16:52.056Z,21.63
2022-12-25T07:19:19.446Z,12.85
2022-12-25T07:21:47.335Z,4.23
2022-12-25T07:24:21.781Z,15.25
2022-12-25T07:26:49.824Z,7.47
2022-12-25T07:29:17.719Z,11.05
2022-12-25T07:31:45.232Z,12.35
2022-12-25T07:34:12.455Z,8.80
2022-12-25T07:36:39.717Z,8.97
2022-12-25T07:39:06.995Z,8.53
2022-12-25T07:41:34.228Z,5.20
2022-12-25T07:44:01.540Z,3.50
2022-12-25T07:46:29.099Z,5.83
2022-12-25T07:48:56.357Z,6.45
2022-12-25T07:51:23.715Z,5.53
2022-12-25T07:53:50.992Z,19.20
2022-12-25T07:56:20.344Z,4.17
2022-12-25T07:58:48.687Z,21.60
2022-12-25T08:01:21.718Z,9.77
2022-12-25T08:03:57.411Z,7.60
2022-12-25T08:06:29.751Z,12.13
2022-12-25T08:09:02.800Z,8.82
2022-12-25T08:11:30.125Z,8.32
2022-12-25T08:13:57.437Z,14.23
2022-12-25T08:16:24.923Z,9.02
2022-12-25T08:18:53.405Z,7.33
2022-12-25T08:21:20.761Z,5.95
2022-12-25T08:23:48.367Z,6.07
2022-12-25T08:26:21.745Z,5.30
2022-12-25T08:28:49.869Z,5.55
2022-12-25T08:31:20.585Z,7.67
2022-12-25T08:33:49.389Z,9.57
2022-12-25T08:36:17.734Z,12.60
2022-12-25T08:38:45.535Z,13.75
2022-12-25T08:41:13.015Z,12.57
2022-12-25T08:43:40.308Z,6.13
2022-12-25T08:46:08.117Z,14.43
2022-12-25T08:48:35.701Z,20.90
2022-12-25T08:51:04.767Z,7.37
2022-12-25T08:53:32.002Z,9.23
2022-12-25T08:56:01.000Z,13.00
2022-12-25T08:58:28.610Z,11.00
2022-12-25T09:00:56.753Z,6.70
2022-12-25T09:03:24.916Z,7.38
2022-12-25T09:05:53.829Z,9.15
2022-12-25T09:08:21.918Z,9.80
2022-12-25T09:10:49.687Z,7.28
2022-12-25T09:13:17.138Z,8.77
2022-12-25T09:15:44.448Z,7.28
2022-12-25T09:18:11.791Z,7.70
2022-12-25T09:20:39.104Z,9.77
2022-12-25T09:23:13.308Z,8.07
2022-12-25T09:25:41.122Z,10.98
2022-12-25T09:28:08.452Z,7.70
2022-12-25T09:30:35.734Z,10.85
2022-12-25T09:33:02.953Z,7.03
2022-12-25T09:35:30.212Z,8.15
2022-12-25T09:37:57.545Z,7.53
2022-12-25T09:40:28.885Z,7.00
2022-12-25T09:42:56.983Z,4.68
2022-12-25T09:45:35.844Z,9.77
2022-12-25T09:48:03.490Z,6.10
2022-12-25T09:50:46.543Z,4.90
2022-12-25T09:53:22.812Z,7.15
2022-12-25T09:56:04.360Z,4.78
2022-12-25T09:58:33.086Z,10.65
2022-12-25T10:01:42.218Z,5.35
2022-12-25T10:04:29.898Z,4.75
2022-12-25T10:06:57.066Z,5.43
2022-12-25T10:09:34.765Z,11.00
2022-12-25T10:12:17.185Z,7.82
2022-12-25T10:15:03.761Z,8.57
2022-12-25T10:17:48.791Z,4.13
2022-12-25T10:20:54.419Z,3.47
2022-12-25T10:23:30.420Z,8.00
2022-12-25T10:25:57.750Z,4.78
2022-12-25T10:28:38.824Z,8.40
2022-12-25T10:31:20.208Z,7.18
2022-12-25T10:33:49.887Z,3.90
2022-12-25T10:36:26.498Z,4.18
2022-12-25T10:38:54.828Z,4.32
2022-12-25T10:41:22.049Z,3.65
2022-12-25T10:43:55.433Z,3.42
2022-12-25T10:46:26.506Z,4.00
2022-12-25T10:48:57.353Z,3.55
2022-12-25T10:51:35.035Z,6.13
2022-12-25T10:54:04.815Z,4.97
2022-12-25T10:56:32.127Z,4.10
2022-12-25T10:59:07.004Z,4.13
2022-12-25T11:01:34.605Z,4.63
2022-12-25T11:04:02.307Z,5.53
2022-12-25T11:06:32.334Z,3.13
2022-12-25T11:09:02.094Z,3.70
2022-12-25T11:11:30.494Z,4.93
2022-12-25T11:14:01.381Z,9.38
2022-12-25T11:16:37.042Z,6.85
2022-12-25T11:19:21.910Z,4.15
2022-12-25T11:22:00.351Z,3.88
2022-12-25T11:24:30.180Z,3.78
2022-12-25T11:27:01.093Z,7.30
2022-12-25T11:29:31.476Z,8.18
2022-12-25T11:32:00.467Z,6.05
2022-12-25T11:34:39.427Z,4.22
2022-12-25T11:37:15.771Z,5.15
2022-12-25T11:39:43.309Z,6.30
2022-12-25T11:42:21.308Z,5.88
2022-12-25T11:44:52.339Z,3.70
2022-12-25T11:47:31.107Z,3.90
2022-12-25T11:50:04.998Z,6.10
2022-12-25T11:52:36.845Z,2.50
2022-12-25T11:55:10.933Z,4.60
2022-12-25T11:57:39.189Z,4.22
2022-12-25T12:00:10.302Z,4.63
2022-12-25T12:02:46.757Z,3.38
2022-12-25T12:05:32.438Z,3.40
2022-12-25T12:08:02.753Z,4.10
2022-12-25T12:10:43.230Z,7.90
2022-12-25T12:13:44.320Z,3.75
2022-12-25T12:16:11.982Z,3.75
2022-12-25T12:18:39.286Z,2.80
2022-12-25T12:21:22.994Z,3.38
2022-12-25T12:23:50.238Z,4.05
2022-12-25T12:26:20.394Z,3.67
2022-12-25T12:28:50.515Z,5.50
2022-12-25T12:31:18.310Z,3.50
2022-12-25T12:33:59.265Z,6.75
2022-12-25T12:36:36.263Z,3.80
2022-12-25T12:39:06.037Z,5.10
2022-12-25T12:41:46.400Z,4.85
2022-12-25T12:44:16.216Z,2.92
2022-12-25T12:46:57.458Z,4.18
2022-12-25T12:49:26.853Z,8.82
2022-12-25T12:52:36.796Z,7.60
2022-12-25T12:55:13.941Z,3.03
2022-12-25T12:57:41.537Z,3.05
2022-12-25T13:00:19.683Z,3.35
2022-12-25T13:03:17.764Z,5.97
2022-12-25T13:05:54.449Z,4.10
2022-12-25T13:08:33.589Z,4.22
2022-12-25T13:11:21.676Z,3.08
2022-12-25T13:13:51.111Z,3.47
2022-12-25T13:16:32.198Z,3.53
2022-12-25T13:19:04.259Z,5.30
2022-12-25T13:21:32.645Z,2.92
2022-12-25T13:24:02.594Z,5.57
2022-12-25T13:26:30.970Z,5.20
2022-12-25T13:28:59.213Z,9.65
2022-12-25T13:31:28.663Z,15.75
2022-12-25T13:34:03.607Z,5.28
2022-12-25T13:36:37.056Z,2.85
2022-12-25T13:39:09.214Z,4.10
2022-12-25T13:42:06.663Z,5.10
2022-12-25T13:44:50.516Z,7.15
2022-12-25T13:47:25.060Z,6.05
2022-12-25T13:49:54.640Z,6.88
2022-12-25T13:52:31.714Z,3.50
2022-12-25T13:55:01.724Z,3.92
2022-12-25T13:57:36.933Z,4.45
2022-12-25T14:00:07.451Z,5.80
2022-12-25T14:02:38.478Z,3.92
2022-12-25T14:05:27.203Z,4.25
2022-12-25T14:07:57.052Z,6.60
2022-12-25T14:10:27.235Z,7.38
2022-12-25T14:12:59.817Z,6.05
2022-12-25T14:15:30.266Z,6.22
2022-12-25T14:17:58.108Z,4.55
2022-12-25T14:20:32.561Z,3.80
2022-12-25T14:23:00.831Z,5.63
2022-12-25T14:25:32.059Z,8.48
2022-12-25T14:28:04.737Z,5.43
2022-12-25T14:30:32.581Z,9.52
2022-12-25T14:32:59.906Z,3.70
2022-12-25T14:35:27.225Z,7.40
2022-12-25T14:38:00.324Z,6.13
2022-12-25T14:40:34.131Z,6.70
2022-12-25T14:43:06.396Z,8.20
2022-12-25T14:45:38.425Z,6.15
2022-12-25T14:48:24.472Z,11.25
2022-12-25T14:50:58.429Z,4.80
2022-12-25T14:53:34.395Z,6.50
2022-12-25T14:56:01.813Z,3.38
2022-12-25T14:58:32.780Z,9.32
2022-12-25T15:01:05.044Z,5.38
2022-12-25T15:03:38.657Z,5.53
2022-12-25T15:06:19.155Z,6.10
2022-12-25T15:09:01.774Z,6.30
2022-12-25T15:11:30.405Z,8.00
2022-12-25T15:13:58.490Z,11.32
2022-12-25T15:16:30.940Z,9.07
2022-12-25T15:19:00.520Z,5.88
2022-12-25T15:21:30.376Z,9.50
2022-12-25T15:23:59.060Z,5.97
2022-12-25T15:26:28.329Z,8.63
2022-12-25T15:28:55.658Z,4.25
2022-12-25T15:31:33.511Z,7.55
2022-12-25T15:34:03.953Z,4.63
2022-12-25T15:36:32.221Z,8.50
2022-12-25T15:38:59.995Z,5.93
2022-12-25T15:41:50.126Z,7.55
2022-12-25T15:44:17.505Z,8.45
2022-12-25T15:46:46.011Z,6.83
2022-12-25T15:49:15.063Z,9.13
2022-12-25T15:51:43.500Z,7.35
2022-12-25T15:54:11.023Z,11.90
2022-12-25T15:56:51.600Z,11.18
2022-12-25T15:59:20.507Z,13.93
2022-12-25T16:01:50.699Z,7.25
2022-12-25T16:04:18.549Z,7.53
2022-12-25T16:06:46.067Z,8.75
2022-12-25T16:09:14.710Z,7.65
2022-12-25T16:11:42.434Z,6.45
2022-12-25T16:14:10.244Z,12.40
2022-12-25T16:16:38.042Z,25.30
2022-12-25T16:19:06.208Z,11.10
2022-12-25T16:21:43.445Z,15.17
2022-12-25T16:24:11.228Z,17.55
2022-12-25T16:26:38.617Z,20.10
2022-12-25T16:29:07.797Z,20.30
2022-12-25T16:31:37.009Z,25.98
2022-12-25T16:34:06.129Z,17.55
2022-12-25T16:36:34.372Z,20.45
2022-12-25T16:39:02.216Z,15.88
2022-12-25T16:41:29.483Z,14.40
2022-12-25T16:43:56.708Z,15.80
2022-12-25T16:46:24.120Z,15.60
2022-12-25T16:48:51.430Z,15.88
2022-12-25T16:51:21.119Z,17.05
2022-12-25T16:53:48.460Z,19.52
2022-12-25T16:56:18.340Z,16.67
2022-12-25T16:58:48.543Z,18.80
2022-12-25T17:01:17.974Z,16.63
2022-12-25T17:03:46.302Z,15.30
2022-12-25T17:06:20.599Z,16.20
2022-12-25T17:08:48.121Z,26.50
2022-12-25T17:11:16.780Z,23.52
2022-12-25T17:13:48.148Z,20.02
2022-12-25T17:16:24.916Z,21.02
2022-12-25T17:18:57.931Z,30.40
2022-12-25T17:21:26.440Z,27.48
2022-12-25T17:23:59.672Z,29.03
2022-12-25T17:26:29.607Z,27.23
2022-12-25T17:28:57.304Z,24.80
2022-12-25T17:31:24.701Z,19.13
2022-12-25T17:33:51.998Z,19.70
2022-12-25T17:36:21.179Z,19.83
2022-12-25T17:38:49.381Z,23.30
2022-12-25T17:41:18.680Z,22.13
2022-12-25T17:43:46.859Z,25.93
2022-12-25T17:46:18.606Z,28.63
2022-12-25T17:48:46.782Z,22.33
2022-12-25T17:51:16.480Z,21.07
2022-12-25T17:53:46.037Z,24.77
2022-12-25T17:56:14.451Z,21.03
2022-12-25T17:58:41.971Z,29.57
2022-12-25T18:01:14.731Z,30.70
2022-12-25T18:03:43.600Z,28.97
2022-12-25T18:06:13.600Z,31.27
2022-12-25T18:08:41.647Z,29.77
2022-12-25T18:11:15.091Z,32.63
2022-12-25T18:13:45.088Z,28.83
2022-12-25T18:16:13.438Z,22.30
2022-12-25T18:18:45.175Z,29.63
2022-12-25T18:21:17.057Z,28.17
2022-12-25T18:23:44.385Z,26.83
2022-12-25T18:26:12.138Z,28.90
2022-12-25T18:28:40.123Z,37.13
2022-12-25T18:31:10.154Z,43.80
2022-12-25T18:33:37.435Z,38.93
2022-12-25T18:36:04.980Z,44.03
2022-12-25T18:38:32.241Z,49.77
2022-12-25T18:40:59.707Z,37.37
2022-12-25T18:43:54.373Z,31.17
2022-12-25T18:46:15.502Z,33.27
2022-12-25T18:48:43.316Z,25.50
2022-12-25T18:51:13.630Z,24.67
2022-12-25T18:53:41.074Z,21.53
2022-12-25T18:56:15.583Z,23.10
2022-12-25T18:58:43.235Z,22.23
2022-12-25T19:01:21.746Z,31.13
2022-12-25T19:03:50.220Z,25.27
2022-12-25T19:06:23.498Z,12.70
2022-12-25T19:08:51.690Z,19.67
2022-12-25T19:11:19.544Z,20.80
2022-12-25T19:13:47.374Z,21.20
2022-12-25T19:16:15.203Z,19.03
2022-12-25T19:18:43.434Z,25.07
2022-12-25T19:21:10.929Z,23.13
2022-12-25T19:23:38.653Z,18.33
2022-12-25T19:26:07.551Z,15.37
2022-12-25T19:28:35.610Z,17.63
2022-12-25T19:31:04.535Z,16.00
2022-12-25T19:33:32.444Z,21.20
2022-12-25T19:36:06.330Z,19.20
2022-12-25T19:38:33.645Z,20.73
2022-12-25T19:41:13.010Z,24.83
2022-12-25T19:43:41.647Z,19.83
2022-12-25T19:46:15.115Z,17.10
2022-12-25T19:48:42.378Z,20.00
2022-12-25T19:51:24.935Z,21.67
2022-12-25T19:53:53.445Z,21.07
2022-12-25T19:56:20.700Z,18.40
2022-12-25T19:58:48.017Z,19.73
2022-12-25T20:01:18.095Z,23.87
2022-12-25T20:03:46.587Z,23.27
2022-12-25T20:06:22.068Z,23.30
2022-12-25T20:08:52.725Z,15.80
2022-12-25T20:11:21.793Z,20.63
2022-12-25T20:13:49.358Z,19.77
2022-12-25T20:16:16.701Z,14.23
2022-12-25T20:18:44.266Z,17.13
2022-12-25T20:21:19.630Z,20.87
2022-12-25T20:23:49.131Z,16.20
2022-12-25T20:26:19.041Z,18.83
2022-12-25T20:28:47.242Z,27.50
2022-12-25T20:31:18.435Z,17.97
2022-12-25T20:33:46.412Z,13.53
2022-12-25T20:36:14.351Z,10.43
2022-12-25T20:38:42.201Z,13.80
2022-12-25T20:41:29.500Z,6.67
2022-12-25T20:43:57.688Z,30.87
2022-12-25T20:46:26.120Z,23.42
2022-12-25T20:48:53.798Z,16.00
2022-12-25T20:51:23.214Z,12.10
2022-12-25T20:53:51.261Z,7.97
2022-12-25T20:56:21.018Z,9.80
2022-12-25T20:58:52.412Z,21.43
2022-12-25T21:01:19.812Z,10.23
2022-12-25T21:03:47.322Z,5.60
2022-12-25T21:06:14.641Z,7.80
2022-12-25T21:08:41.933Z,15.33
2022-12-25T21:11:09.648Z,12.43
2022-12-25T21:13:40.347Z,8.37
2022-12-25T21:16:11.363Z,13.53
2022-12-25T21:18:38.548Z,12.63
2022-12-25T21:21:07.580Z,10.23
2022-12-25T21:23:37.112Z,10.05
2022-12-25T21:26:12.661Z,9.50
2022-12-25T21:28:40.041Z,5.22
2022-12-25T21:31:08.226Z,9.47
2022-12-25T21:33:54.570Z,7.00
2022-12-25T21:36:29.524Z,7.43
2022-12-25T21:39:05.718Z,8.73
2022-12-25T21:41:34.364Z,7.87
2022-12-25T21:44:02.078Z,9.23
2022-12-25T21:46:29.483Z,7.53
2022-12-25T21:48:57.888Z,9.17
2022-12-25T21:51:47.291Z,8.20
2022-12-25T21:54:15.338Z,8.40
2022-12-25T21:56:45.440Z,8.57
2022-12-25T21:59:18.293Z,11.90
